createdAt,value
2024-05-09T00:00:01.249Z,1.61
2024-05-09T00:00:18.171Z,1.64
2024-05-09T00:00:29.754Z,1.60
2024-05-09T00:00:38.914Z,1.60
2024-05-09T00:00:42.650Z,1.60
2024-05-09T00:00:51.306Z,1.62
2024-05-09T00:01:01.335Z,1.65
2024-05-09T00:01:21.331Z,1.68
2024-05-09T00:01:31.355Z,1.71
2024-05-09T00:01:41.362Z,1.72
2024-05-09T00:01:51.278Z,1.71
2024-05-09T00:02:01.371Z,1.74
2024-05-09T00:02:11.308Z,1.76
2024-05-09T00:02:21.312Z,1.77
2024-05-09T00:02:31.431Z,1.80
2024-05-09T00:02:51.325Z,1.81
2024-05-09T00:03:01.289Z,1.83
2024-05-09T00:03:12.114Z,1.83
2024-05-09T00:03:21.317Z,1.84
2024-05-09T00:03:31.409Z,1.85
2024-05-09T00:03:41.446Z,1.86
2024-05-09T00:03:51.352Z,1.89
2024-05-09T00:04:01.325Z,1.90
2024-05-09T00:04:11.341Z,1.90
2024-05-09T00:04:21.293Z,1.90
2024-05-09T00:04:31.307Z,1.92
2024-05-09T00:04:51.331Z,1.95
2024-05-09T00:05:01.432Z,1.95
2024-05-09T00:05:11.713Z,1.94
2024-05-09T00:05:21.427Z,1.96
2024-05-09T00:05:31.337Z,1.97
2024-05-09T00:05:41.605Z,1.97
2024-05-09T00:05:51.315Z,1.96
2024-05-09T00:06:11.341Z,2.00
2024-05-09T00:06:21.284Z,2.00
2024-05-09T00:06:31.289Z,2.01
2024-05-09T00:06:41.266Z,2.01
2024-05-09T00:06:51.270Z,1.99
2024-05-09T00:07:01.266Z,2.01
2024-05-09T00:07:11.284Z,2.00
2024-05-09T00:07:21.275Z,2.01
2024-05-09T00:07:41.272Z,2.03
2024-05-09T00:07:51.297Z,2.04
2024-05-09T00:08:01.452Z,2.05
2024-05-09T00:08:11.625Z,2.05
2024-05-09T00:08:21.346Z,2.06
2024-05-09T00:08:31.403Z,2.07
2024-05-09T00:08:41.329Z,2.12
2024-05-09T00:08:51.279Z,2.16
2024-05-09T00:09:01.275Z,2.18
2024-05-09T00:09:11.281Z,2.18
2024-05-09T00:09:21.285Z,2.20
2024-05-09T00:09:31.280Z,2.24
2024-05-09T00:09:41.307Z,2.28
2024-05-09T00:09:51.297Z,2.30
2024-05-09T00:10:01.279Z,2.31
2024-05-09T00:10:18.294Z,2.34
2024-05-09T00:10:29.127Z,2.29
2024-05-09T00:10:36.225Z,2.29
2024-05-09T00:10:42.292Z,2.28
2024-05-09T00:10:51.330Z,2.29
2024-05-09T00:11:01.372Z,2.29
2024-05-09T00:11:11.458Z,2.28
2024-05-09T00:11:31.445Z,2.28
2024-05-09T00:11:41.466Z,2.26
2024-05-09T00:11:51.350Z,2.25
2024-05-09T00:12:01.457Z,2.22
2024-05-09T00:12:11.424Z,2.20
2024-05-09T00:12:21.488Z,2.20
2024-05-09T00:12:31.351Z,2.20
2024-05-09T00:12:41.292Z,2.19
2024-05-09T00:12:51.289Z,2.18
2024-05-09T00:13:01.290Z,2.18
2024-05-09T00:13:21.294Z,2.16
2024-05-09T00:13:31.301Z,2.16
2024-05-09T00:13:41.293Z,2.17
2024-05-09T00:13:51.367Z,2.16
2024-05-09T00:14:01.335Z,2.15
2024-05-09T00:14:11.372Z,2.13
2024-05-09T00:14:21.358Z,2.13
2024-05-09T00:14:31.352Z,2.12
2024-05-09T00:14:41.302Z,2.11
2024-05-09T00:15:01.335Z,2.08
2024-05-09T00:15:11.339Z,2.07
2024-05-09T00:15:21.311Z,2.05
2024-05-09T00:15:31.306Z,2.04
2024-05-09T00:15:41.313Z,2.04
2024-05-09T00:15:51.306Z,2.03
2024-05-09T00:16:01.306Z,2.04
2024-05-09T00:16:21.324Z,2.02
2024-05-09T00:16:31.311Z,2.01
2024-05-09T00:16:41.313Z,2.01
2024-05-09T00:16:51.388Z,2.01
2024-05-09T00:17:01.342Z,2.00
2024-05-09T00:17:11.350Z,2.00
2024-05-09T00:17:21.509Z,1.99
2024-05-09T00:17:31.554Z,1.99
2024-05-09T00:17:41.587Z,1.98
2024-05-09T00:17:51.551Z,1.98
2024-05-09T00:18:01.721Z,1.97
2024-05-09T00:18:11.471Z,1.96
2024-05-09T00:18:31.418Z,1.96
2024-05-09T00:18:41.439Z,1.96
2024-05-09T00:18:51.453Z,1.95
2024-05-09T00:19:01.444Z,1.95
2024-05-09T00:19:11.558Z,1.95
2024-05-09T00:19:21.461Z,1.94
2024-05-09T00:19:31.379Z,1.94
2024-05-09T00:19:41.321Z,1.91
2024-05-09T00:20:01.456Z,1.90
2024-05-09T00:20:17.716Z,1.90
2024-05-09T00:20:28.400Z,1.87
2024-05-09T00:20:37.779Z,1.84
2024-05-09T00:20:42.363Z,1.80
2024-05-09T00:20:51.485Z,1.80
2024-05-09T00:21:01.510Z,1.79
2024-05-09T00:21:21.337Z,1.80
2024-05-09T00:21:31.328Z,1.79
2024-05-09T00:21:41.337Z,1.78
2024-05-09T00:21:51.337Z,1.77
2024-05-09T00:22:01.336Z,1.75
2024-05-09T00:22:11.345Z,1.76
2024-05-09T00:22:21.337Z,1.73
2024-05-09T00:22:31.452Z,1.73
2024-05-09T00:22:41.339Z,1.71
2024-05-09T00:22:51.394Z,1.71
2024-05-09T00:23:01.440Z,1.70
2024-05-09T00:23:12.544Z,1.67
2024-05-09T00:23:21.387Z,1.64
2024-05-09T00:23:41.362Z,1.60
2024-05-09T00:23:51.344Z,1.59
2024-05-09T00:24:01.368Z,1.59
2024-05-09T00:24:11.343Z,1.55
2024-05-09T00:24:21.349Z,1.53
2024-05-09T00:24:31.359Z,1.52
2024-05-09T00:24:41.366Z,1.53
2024-05-09T00:24:51.337Z,1.52
2024-05-09T00:25:01.362Z,1.49
2024-05-09T00:25:11.366Z,1.49
2024-05-09T00:25:21.352Z,1.48
2024-05-09T00:25:31.354Z,1.45
2024-05-09T00:25:41.371Z,1.46
2024-05-09T00:25:51.486Z,1.47
2024-05-09T00:26:01.382Z,1.45
2024-05-09T00:26:11.386Z,1.44
2024-05-09T00:26:21.415Z,1.43
2024-05-09T00:26:31.387Z,1.42
2024-05-09T00:26:51.361Z,1.41
2024-05-09T00:27:01.383Z,1.43
2024-05-09T00:27:13.346Z,1.42
2024-05-09T00:27:21.355Z,1.43
2024-05-09T00:27:31.389Z,1.43
2024-05-09T00:27:41.370Z,1.44
2024-05-09T00:27:51.360Z,1.45
2024-05-09T00:28:11.358Z,1.43
2024-05-09T00:28:21.384Z,1.45
2024-05-09T00:28:31.360Z,1.44
2024-05-09T00:28:41.366Z,1.45
2024-05-09T00:28:52.418Z,1.46
2024-05-09T00:29:01.391Z,1.47
2024-05-09T00:29:11.396Z,1.47
2024-05-09T00:29:21.435Z,1.47
2024-05-09T00:29:31.451Z,1.46
2024-05-09T00:29:41.404Z,1.47
2024-05-09T00:30:01.367Z,1.47
2024-05-09T00:30:17.543Z,1.49
2024-05-09T00:30:31.571Z,1.47
2024-05-09T00:30:35.442Z,1.47
2024-05-09T00:30:41.481Z,1.45
2024-05-09T00:30:51.398Z,1.45
2024-05-09T00:31:01.378Z,1.47
2024-05-09T00:31:11.375Z,1.47
2024-05-09T00:31:31.381Z,1.48
2024-05-09T00:31:41.379Z,1.47
2024-05-09T00:31:51.437Z,1.48
2024-05-09T00:32:01.523Z,1.51
2024-05-09T00:32:11.473Z,1.54
2024-05-09T00:32:21.648Z,1.55
2024-05-09T00:32:31.586Z,1.57
2024-05-09T00:32:41.552Z,1.58
2024-05-09T00:32:51.762Z,1.59
2024-05-09T00:33:01.619Z,1.60
2024-05-09T00:33:11.944Z,1.60
2024-05-09T00:33:21.653Z,1.60
2024-05-09T00:33:31.525Z,1.61
2024-05-09T00:33:41.601Z,1.61
2024-05-09T00:33:51.671Z,1.61
2024-05-09T00:34:01.691Z,1.62
2024-05-09T00:34:21.599Z,1.61
2024-05-09T00:34:31.490Z,1.61
2024-05-09T00:34:41.393Z,1.60
2024-05-09T00:34:51.451Z,1.61
2024-05-09T00:35:01.515Z,1.61
2024-05-09T00:35:11.415Z,1.61
2024-05-09T00:35:31.490Z,1.58
2024-05-09T00:35:41.504Z,1.60
2024-05-09T00:35:51.394Z,1.59
2024-05-09T00:36:01.394Z,1.60
2024-05-09T00:36:11.400Z,1.59
2024-05-09T00:36:21.397Z,1.60
2024-05-09T00:36:41.425Z,1.59
2024-05-09T00:36:51.397Z,1.58
2024-05-09T00:37:01.396Z,1.59
2024-05-09T00:37:11.397Z,1.57
2024-05-09T00:37:21.401Z,1.57
2024-05-09T00:37:31.405Z,1.57
2024-05-09T00:37:41.416Z,1.58
2024-05-09T00:37:51.457Z,1.58
2024-05-09T00:38:01.650Z,1.57
2024-05-09T00:38:11.564Z,1.58
2024-05-09T00:38:21.486Z,1.57
2024-05-09T00:38:31.584Z,1.58
2024-05-09T00:38:51.398Z,1.60
2024-05-09T00:39:01.406Z,1.58
2024-05-09T00:39:11.420Z,1.58
2024-05-09T00:39:21.412Z,1.57
2024-05-09T00:39:31.432Z,1.59
2024-05-09T00:39:41.413Z,1.59
2024-05-09T00:39:51.412Z,1.57
2024-05-09T00:40:01.411Z,1.57
2024-05-09T00:40:18.336Z,1.56
2024-05-09T00:40:30.653Z,1.56
2024-05-09T00:40:38.723Z,1.54
2024-05-09T00:40:43.623Z,1.52
2024-05-09T00:40:51.447Z,1.50
2024-05-09T00:41:01.487Z,1.50
2024-05-09T00:41:12.377Z,1.52
2024-05-09T00:41:31.435Z,1.53
2024-05-09T00:41:41.498Z,1.54
2024-05-09T00:41:51.437Z,1.54
2024-05-09T00:42:01.426Z,1.54
2024-05-09T00:42:11.416Z,1.55
2024-05-09T00:42:21.428Z,1.54
2024-05-09T00:42:31.417Z,1.55
2024-05-09T00:42:41.441Z,1.55
2024-05-09T00:42:51.425Z,1.57
2024-05-09T00:43:01.447Z,1.55
2024-05-09T00:43:12.284Z,1.57
2024-05-09T00:43:21.432Z,1.55
2024-05-09T00:43:31.511Z,1.56
2024-05-09T00:43:51.480Z,1.60
2024-05-09T00:44:01.456Z,1.61
2024-05-09T00:44:11.534Z,1.63
2024-05-09T00:44:21.449Z,1.64
2024-05-09T00:44:31.487Z,1.65
2024-05-09T00:44:41.432Z,1.67
2024-05-09T00:44:51.441Z,1.67
2024-05-09T00:45:01.438Z,1.68
2024-05-09T00:45:21.451Z,1.69
2024-05-09T00:45:31.439Z,1.70
2024-05-09T00:45:41.449Z,1.69
2024-05-09T00:45:51.442Z,1.67
2024-05-09T00:46:01.450Z,1.70
2024-05-09T00:46:11.467Z,1.68
2024-05-09T00:46:21.448Z,1.69
2024-05-09T00:46:31.450Z,1.68
2024-05-09T00:46:41.443Z,1.67
2024-05-09T00:46:51.475Z,1.66
2024-05-09T00:47:01.466Z,1.65
2024-05-09T00:47:11.506Z,1.64
2024-05-09T00:47:31.584Z,1.62
2024-05-09T00:47:41.537Z,1.61
2024-05-09T00:47:51.887Z,1.61
2024-05-09T00:48:01.662Z,1.60
2024-05-09T00:48:13.926Z,1.59
2024-05-09T00:48:21.817Z,1.55
2024-05-09T00:48:31.606Z,1.53
2024-05-09T00:48:51.496Z,1.51
2024-05-09T00:49:01.613Z,1.50
2024-05-09T00:49:11.538Z,1.46
2024-05-09T00:49:21.748Z,1.47
2024-05-09T00:49:31.562Z,1.48
2024-05-09T00:49:41.558Z,1.47
2024-05-09T00:49:51.519Z,1.45
2024-05-09T00:50:01.572Z,1.44
2024-05-09T00:50:16.019Z,1.44
2024-05-09T00:50:29.467Z,1.40
2024-05-09T00:50:36.224Z,1.36
2024-05-09T00:50:42.627Z,1.33
2024-05-09T00:50:51.499Z,1.34
2024-05-09T00:51:01.605Z,1.36
2024-05-09T00:51:11.595Z,1.36
2024-05-09T00:51:31.461Z,1.36
2024-05-09T00:51:41.478Z,1.35
2024-05-09T00:51:51.468Z,1.35
2024-05-09T00:52:01.488Z,1.37
2024-05-09T00:52:11.488Z,1.36
2024-05-09T00:52:21.467Z,1.36
2024-05-09T00:52:31.530Z,1.37
2024-05-09T00:52:41.474Z,1.37
2024-05-09T00:52:51.496Z,1.38
2024-05-09T00:53:01.548Z,1.39
2024-05-09T00:53:21.556Z,1.39
2024-05-09T00:53:31.584Z,1.39
2024-05-09T00:53:41.498Z,1.39
2024-05-09T00:53:51.469Z,1.40
2024-05-09T00:54:01.462Z,1.40
2024-05-09T00:54:11.468Z,1.41
2024-05-09T00:54:31.494Z,1.41
2024-05-09T00:54:41.464Z,1.41
2024-05-09T00:54:51.478Z,1.42
2024-05-09T00:55:01.478Z,1.44
2024-05-09T00:55:11.484Z,1.45
2024-05-09T00:55:21.482Z,1.45
2024-05-09T00:55:41.483Z,1.45
2024-05-09T00:55:51.535Z,1.47
2024-05-09T00:56:01.504Z,1.46
2024-05-09T00:56:11.514Z,1.46
2024-05-09T00:56:21.504Z,1.48
2024-05-09T00:56:31.645Z,1.49
2024-05-09T00:56:41.485Z,1.46
2024-05-09T00:56:51.523Z,1.47
2024-05-09T00:57:01.506Z,1.46
2024-05-09T00:57:11.496Z,1.47
2024-05-09T00:57:31.511Z,1.46
2024-05-09T00:57:41.489Z,1.46
2024-05-09T00:57:51.488Z,1.45
2024-05-09T00:58:01.487Z,1.48
2024-05-09T00:58:11.504Z,1.44
2024-05-09T00:58:21.506Z,1.45
2024-05-09T00:58:41.501Z,1.45
2024-05-09T00:58:51.542Z,1.45
2024-05-09T00:59:01.566Z,1.43
2024-05-09T00:59:11.537Z,1.46
2024-05-09T00:59:21.653Z,1.47
2024-05-09T00:59:31.617Z,1.45
2024-05-09T00:59:41.615Z,1.46
2024-05-09T00:59:51.505Z,1.46
2024-05-09T01:00:01.497Z,1.46
2024-05-09T01:00:22.410Z,1.47
2024-05-09T01:00:30.746Z,1.45
2024-05-09T01:00:38.658Z,1.44
2024-05-09T01:00:42.635Z,1.42
2024-05-09T01:00:51.528Z,1.42
2024-05-09T01:01:01.618Z,1.44
2024-05-09T01:01:11.570Z,1.45
2024-05-09T01:01:31.566Z,1.46
2024-05-09T01:01:41.614Z,1.45
2024-05-09T01:01:51.614Z,1.45
2024-05-09T01:02:01.633Z,1.47
2024-05-09T01:02:11.579Z,1.44
2024-05-09T01:02:21.595Z,1.44
2024-05-09T01:02:31.702Z,1.43
2024-05-09T01:02:41.609Z,1.41
2024-05-09T01:03:01.811Z,1.40
2024-05-09T01:03:13.546Z,1.38
2024-05-09T01:03:22.220Z,1.34
2024-05-09T01:03:31.707Z,1.33
2024-05-09T01:03:41.647Z,1.32
2024-05-09T01:03:51.882Z,1.31
2024-05-09T01:04:01.634Z,1.29
2024-05-09T01:04:11.691Z,1.29
2024-05-09T01:04:21.631Z,1.26
2024-05-09T01:04:31.529Z,1.25
2024-05-09T01:04:41.553Z,1.24
2024-05-09T01:04:51.710Z,1.24
2024-05-09T01:05:01.624Z,1.23
2024-05-09T01:05:11.616Z,1.21
2024-05-09T01:05:21.535Z,1.21
2024-05-09T01:05:31.578Z,1.20
2024-05-09T01:05:42.174Z,1.20
2024-05-09T01:05:51.674Z,1.19
2024-05-09T01:06:01.618Z,1.19
2024-05-09T01:06:11.522Z,1.18
2024-05-09T01:06:21.528Z,1.18
2024-05-09T01:06:31.548Z,1.18
2024-05-09T01:06:41.529Z,1.18
2024-05-09T01:06:51.523Z,1.18
2024-05-09T01:07:01.535Z,1.18
2024-05-09T01:07:11.538Z,1.17
2024-05-09T01:07:21.530Z,1.18
2024-05-09T01:07:31.529Z,1.19
2024-05-09T01:07:41.578Z,1.18
2024-05-09T01:07:51.552Z,1.20
2024-05-09T01:08:01.582Z,1.19
2024-05-09T01:08:11.930Z,1.19
2024-05-09T01:08:21.721Z,1.20
2024-05-09T01:08:31.635Z,1.20
2024-05-09T01:08:52.375Z,1.17
2024-05-09T01:09:01.547Z,1.18
2024-05-09T01:09:11.537Z,1.18
2024-05-09T01:09:21.549Z,1.20
2024-05-09T01:09:31.550Z,1.19
2024-05-09T01:09:41.547Z,1.17
2024-05-09T01:10:01.573Z,1.18
2024-05-09T01:10:17.140Z,1.18
2024-05-09T01:10:28.291Z,1.17
2024-05-09T01:10:35.041Z,1.14
2024-05-09T01:10:51.634Z,1.12
2024-05-09T01:11:01.818Z,1.12
2024-05-09T01:11:11.659Z,1.10
2024-05-09T01:11:31.618Z,1.13
2024-05-09T01:11:41.650Z,1.13
2024-05-09T01:11:51.646Z,1.12
2024-05-09T01:12:01.728Z,1.12
2024-05-09T01:12:11.809Z,1.12
2024-05-09T01:12:21.644Z,1.12
2024-05-09T01:12:31.653Z,1.12
2024-05-09T01:12:41.551Z,1.12
2024-05-09T01:12:51.559Z,1.12
2024-05-09T01:13:01.567Z,1.10
2024-05-09T01:13:21.561Z,1.11
2024-05-09T01:13:31.566Z,1.10
2024-05-09T01:13:41.560Z,1.11
2024-05-09T01:13:51.586Z,1.11
2024-05-09T01:14:01.588Z,1.10
2024-05-09T01:14:11.670Z,1.10
2024-05-09T01:14:21.623Z,1.10
2024-05-09T01:14:41.575Z,1.11
2024-05-09T01:14:51.611Z,1.13
2024-05-09T01:15:01.617Z,1.12
2024-05-09T01:15:11.576Z,1.13
2024-05-09T01:15:21.567Z,1.12
2024-05-09T01:15:31.568Z,1.12
2024-05-09T01:15:41.573Z,1.12
2024-05-09T01:15:52.375Z,1.13
2024-05-09T01:16:01.571Z,1.13
2024-05-09T01:16:11.575Z,1.12
2024-05-09T01:16:21.591Z,1.12
2024-05-09T01:16:31.579Z,1.10
2024-05-09T01:16:41.588Z,1.08
2024-05-09T01:17:01.612Z,1.07
2024-05-09T01:17:11.673Z,1.07
2024-05-09T01:17:21.718Z,1.07
2024-05-09T01:17:31.857Z,1.06
2024-05-09T01:17:41.804Z,1.05
2024-05-09T01:17:51.821Z,1.04
2024-05-09T01:18:01.915Z,1.03
2024-05-09T01:18:12.914Z,1.02
2024-05-09T01:18:31.711Z,0.98
2024-05-09T01:18:41.679Z,0.99
2024-05-09T01:18:51.761Z,0.97
2024-05-09T01:19:01.633Z,0.98
2024-05-09T01:19:11.703Z,0.96
2024-05-09T01:19:21.763Z,0.97
2024-05-09T01:19:31.789Z,0.95
2024-05-09T01:19:41.631Z,0.95
2024-05-09T01:19:51.637Z,0.95
2024-05-09T01:20:01.647Z,0.94
2024-05-09T01:20:19.808Z,0.96
2024-05-09T01:20:31.844Z,0.92
2024-05-09T01:20:40.883Z,0.89
2024-05-09T01:20:44.738Z,0.88
2024-05-09T01:20:51.704Z,0.87
2024-05-09T01:21:01.735Z,0.89
2024-05-09T01:21:21.668Z,0.92
2024-05-09T01:21:31.601Z,0.93
2024-05-09T01:21:41.601Z,0.92
2024-05-09T01:21:51.598Z,0.90
2024-05-09T01:22:01.622Z,0.91
2024-05-09T01:22:11.599Z,0.91
2024-05-09T01:22:21.635Z,0.91
2024-05-09T01:22:31.605Z,0.91
2024-05-09T01:22:41.669Z,0.92
2024-05-09T01:22:51.676Z,0.91
2024-05-09T01:23:01.662Z,0.92
2024-05-09T01:23:12.137Z,0.91
2024-05-09T01:23:21.719Z,0.91
2024-05-09T01:23:31.763Z,0.92
2024-05-09T01:23:51.641Z,0.91
2024-05-09T01:24:01.624Z,0.90
2024-05-09T01:24:11.610Z,0.91
2024-05-09T01:24:21.617Z,0.91
2024-05-09T01:24:31.635Z,0.91
2024-05-09T01:24:41.614Z,0.92
2024-05-09T01:24:51.611Z,0.90
2024-05-09T01:25:01.681Z,0.91
2024-05-09T01:25:11.613Z,0.90
2024-05-09T01:25:21.614Z,0.91
2024-05-09T01:25:31.619Z,0.91
2024-05-09T01:25:41.617Z,0.92
2024-05-09T01:25:51.675Z,0.94
2024-05-09T01:26:11.726Z,0.96
2024-05-09T01:26:21.753Z,0.96
2024-05-09T01:26:31.693Z,0.97
2024-05-09T01:26:41.691Z,1.00
2024-05-09T01:26:51.623Z,1.00
2024-05-09T01:27:01.660Z,0.99
2024-05-09T01:27:11.630Z,0.99
2024-05-09T01:27:21.624Z,1.00
2024-05-09T01:27:31.626Z,1.01
2024-05-09T01:27:41.636Z,1.02
2024-05-09T01:28:01.665Z,1.02
2024-05-09T01:28:11.617Z,1.01
2024-05-09T01:28:21.626Z,1.01
2024-05-09T01:28:31.628Z,1.01
2024-05-09T01:28:41.637Z,1.01
2024-05-09T01:28:51.692Z,1.01
2024-05-09T01:29:11.666Z,1.02
2024-05-09T01:29:21.691Z,1.02
2024-05-09T01:29:31.680Z,1.02
2024-05-09T01:29:41.634Z,1.01
2024-05-09T01:29:51.631Z,1.03
2024-05-09T01:30:01.652Z,1.04
2024-05-09T01:30:17.204Z,1.05
2024-05-09T01:30:31.253Z,1.03
2024-05-09T01:30:35.734Z,1.00
2024-05-09T01:30:41.677Z,0.99
2024-05-09T01:31:01.642Z,1.02
2024-05-09T01:31:11.636Z,1.02
2024-05-09T01:31:21.636Z,1.04
2024-05-09T01:31:31.689Z,1.05
2024-05-09T01:31:41.664Z,1.06
2024-05-09T01:31:51.744Z,1.07
2024-05-09T01:32:01.795Z,1.07
2024-05-09T01:32:11.729Z,1.08
2024-05-09T01:32:21.903Z,1.09
2024-05-09T01:32:31.884Z,1.10
2024-05-09T01:32:41.843Z,1.11
2024-05-09T01:32:51.850Z,1.14
2024-05-09T01:33:12.729Z,1.17
2024-05-09T01:33:21.816Z,1.16
2024-05-09T01:33:31.993Z,1.17
2024-05-09T01:33:41.875Z,1.16
2024-05-09T01:33:51.887Z,1.15
2024-05-09T01:34:01.737Z,1.16
2024-05-09T01:34:21.725Z,1.18
2024-05-09T01:34:31.655Z,1.19
2024-05-09T01:34:41.662Z,1.19
2024-05-09T01:34:51.827Z,1.18
2024-05-09T01:35:01.755Z,1.19
2024-05-09T01:35:11.708Z,1.21
2024-05-09T01:35:21.870Z,1.18
2024-05-09T01:35:31.688Z,1.19
2024-05-09T01:35:42.783Z,1.18
2024-05-09T01:35:51.668Z,1.18
2024-05-09T01:36:01.672Z,1.19
2024-05-09T01:36:11.656Z,1.18
2024-05-09T01:36:21.662Z,1.19
2024-05-09T01:36:31.676Z,1.20
2024-05-09T01:36:41.670Z,1.19
2024-05-09T01:36:51.664Z,1.18
2024-05-09T01:37:01.670Z,1.17
2024-05-09T01:37:11.689Z,1.18
2024-05-09T01:37:21.676Z,1.20
2024-05-09T01:37:31.653Z,1.19
2024-05-09T01:37:41.686Z,1.20
2024-05-09T01:37:51.725Z,1.19
2024-05-09T01:38:01.762Z,1.18
2024-05-09T01:38:11.718Z,1.19
2024-05-09T01:38:21.771Z,1.18
2024-05-09T01:38:31.817Z,1.19
2024-05-09T01:38:51.689Z,1.19
2024-05-09T01:39:01.675Z,1.19
2024-05-09T01:39:11.701Z,1.17
2024-05-09T01:39:21.672Z,1.16
2024-05-09T01:39:31.703Z,1.17
2024-05-09T01:39:41.676Z,1.17
2024-05-09T01:40:01.687Z,1.17
2024-05-09T01:40:15.382Z,1.18
2024-05-09T01:40:29.285Z,1.15
2024-05-09T01:40:37.412Z,1.12
2024-05-09T01:40:42.718Z,1.11
2024-05-09T01:40:51.801Z,1.11
2024-05-09T01:41:01.730Z,1.11
2024-05-09T01:41:11.699Z,1.13
2024-05-09T01:41:31.742Z,1.12
2024-05-09T01:41:41.695Z,1.10
2024-05-09T01:41:51.701Z,1.08
2024-05-09T01:42:01.723Z,1.09
2024-05-09T01:42:11.737Z,1.09
2024-05-09T01:42:21.712Z,1.09
2024-05-09T01:42:31.680Z,1.09
2024-05-09T01:42:41.721Z,1.10
2024-05-09T01:42:51.703Z,1.10
2024-05-09T01:43:12.286Z,1.08
2024-05-09T01:43:21.704Z,1.08
2024-05-09T01:43:31.699Z,1.07
2024-05-09T01:43:41.695Z,1.06
2024-05-09T01:43:51.737Z,1.07
2024-05-09T01:44:01.735Z,1.03
2024-05-09T01:44:11.753Z,1.02
2024-05-09T01:44:21.747Z,1.01
2024-05-09T01:44:31.734Z,1.03
2024-05-09T01:44:41.743Z,1.03
2024-05-09T01:44:51.709Z,1.02
2024-05-09T01:45:11.709Z,1.02
2024-05-09T01:45:21.706Z,1.03
2024-05-09T01:45:31.768Z,1.03
2024-05-09T01:45:41.857Z,1.02
2024-05-09T01:45:51.716Z,1.04
2024-05-09T01:46:02.521Z,1.03
2024-05-09T01:46:11.706Z,1.03
2024-05-09T01:46:21.719Z,1.01
2024-05-09T01:46:31.713Z,1.01
2024-05-09T01:46:41.707Z,1.00
2024-05-09T01:46:51.733Z,0.99
2024-05-09T01:47:11.887Z,0.97
2024-05-09T01:47:21.837Z,0.97
2024-05-09T01:47:31.910Z,0.95
2024-05-09T01:47:42.061Z,0.96
2024-05-09T01:47:51.820Z,0.95
2024-05-09T01:48:02.548Z,0.93
2024-05-09T01:48:11.946Z,0.91
2024-05-09T01:48:21.886Z,0.91
2024-05-09T01:48:31.849Z,0.90
2024-05-09T01:48:51.766Z,0.86
2024-05-09T01:49:01.845Z,0.88
2024-05-09T01:49:11.858Z,0.88
2024-05-09T01:49:21.880Z,0.88
2024-05-09T01:49:31.775Z,0.88
2024-05-09T01:49:41.787Z,0.88
2024-05-09T01:49:51.795Z,0.91
2024-05-09T01:50:01.820Z,0.91
2024-05-09T01:50:16.314Z,0.92
2024-05-09T01:50:33.083Z,0.89
2024-05-09T01:50:38.882Z,0.90
2024-05-09T01:50:43.458Z,0.88
2024-05-09T01:50:51.845Z,0.89
2024-05-09T01:51:01.796Z,0.88
2024-05-09T01:51:11.938Z,0.88
2024-05-09T01:51:21.767Z,0.91
2024-05-09T01:51:41.747Z,0.92
2024-05-09T01:51:51.728Z,0.92
2024-05-09T01:52:01.735Z,0.94
2024-05-09T01:52:11.727Z,0.94
2024-05-09T01:52:21.751Z,0.94
2024-05-09T01:52:31.751Z,0.94
2024-05-09T01:52:41.732Z,0.94
2024-05-09T01:52:51.857Z,0.97
2024-05-09T01:53:12.049Z,0.98
2024-05-09T01:53:21.857Z,0.98
2024-05-09T01:53:31.844Z,0.99
2024-05-09T01:53:41.750Z,0.99
2024-05-09T01:53:51.750Z,1.00
2024-05-09T01:54:01.751Z,0.99
2024-05-09T01:54:11.754Z,1.00
2024-05-09T01:54:21.761Z,1.02
2024-05-09T01:54:41.737Z,1.03
2024-05-09T01:54:51.749Z,1.03
2024-05-09T01:55:05.664Z,1.04
2024-05-09T01:55:11.756Z,1.02
2024-05-09T01:55:21.739Z,1.02
2024-05-09T01:55:31.745Z,1.03
2024-05-09T01:55:41.754Z,1.03
2024-05-09T01:55:51.782Z,1.03
2024-05-09T01:56:01.802Z,1.04
2024-05-09T01:56:21.795Z,1.04
2024-05-09T01:56:31.842Z,1.04
2024-05-09T01:56:41.834Z,1.05
2024-05-09T01:56:51.758Z,1.04
2024-05-09T01:57:01.734Z,1.04
2024-05-09T01:57:11.756Z,1.06
2024-05-09T01:57:21.743Z,1.03
2024-05-09T01:57:32.391Z,1.05
2024-05-09T01:57:41.757Z,1.06
2024-05-09T01:58:01.785Z,1.03
2024-05-09T01:58:11.755Z,1.02
2024-05-09T01:58:21.760Z,1.03
2024-05-09T01:58:31.753Z,1.03
2024-05-09T01:58:41.767Z,1.02
2024-05-09T01:58:51.828Z,1.03
2024-05-09T01:59:01.835Z,1.01
2024-05-09T01:59:11.877Z,1.02
2024-05-09T01:59:21.892Z,1.01
2024-05-09T01:59:31.833Z,1.01
2024-05-09T01:59:41.881Z,1.00
2024-05-09T01:59:51.827Z,1.01
2024-05-09T02:00:01.772Z,1.00
2024-05-09T02:00:30.285Z,1.00
2024-05-09T02:00:38.589Z,0.97
2024-05-09T02:00:43.636Z,0.94
2024-05-09T02:01:01.805Z,0.95
2024-05-09T02:01:11.825Z,0.95
2024-05-09T02:01:21.788Z,0.94
2024-05-09T02:01:55.296Z,0.94
2024-05-09T02:01:56.163Z,0.93
2024-05-09T02:01:56.893Z,0.89
2024-05-09T02:02:02.925Z,0.87
2024-05-09T02:02:11.983Z,0.88
2024-05-09T02:02:21.896Z,0.87
2024-05-09T02:02:31.813Z,0.87
2024-05-09T02:02:51.897Z,0.89
2024-05-09T02:03:02.195Z,0.89
2024-05-09T02:03:14.583Z,0.87
2024-05-09T02:03:22.969Z,0.86
2024-05-09T02:03:31.931Z,0.85
2024-05-09T02:03:41.893Z,0.87
2024-05-09T02:03:52.067Z,0.88
2024-05-09T02:04:02.213Z,0.86
2024-05-09T02:04:31.914Z,0.88
2024-05-09T02:04:41.955Z,0.89
2024-05-09T02:04:51.854Z,0.89
2024-05-09T02:05:01.906Z,0.90
2024-05-09T02:05:12.064Z,0.89
2024-05-09T02:05:21.851Z,0.89
2024-05-09T02:05:31.899Z,0.89
2024-05-09T02:05:41.839Z,0.90
2024-05-09T02:05:51.820Z,0.91
2024-05-09T02:06:02.033Z,0.91
2024-05-09T02:06:21.806Z,0.90
2024-05-09T02:06:31.806Z,0.91
2024-05-09T02:06:41.805Z,0.90
2024-05-09T02:06:51.807Z,0.91
2024-05-09T02:07:01.800Z,0.90
2024-05-09T02:07:11.857Z,0.90
2024-05-09T02:07:21.807Z,0.89
2024-05-09T02:07:31.808Z,0.89
2024-05-09T02:07:41.848Z,0.89
2024-05-09T02:07:51.827Z,0.87
2024-05-09T02:08:01.884Z,0.87
2024-05-09T02:08:22.219Z,0.86
2024-05-09T02:08:32.068Z,0.84
2024-05-09T02:08:41.888Z,0.84
2024-05-09T02:08:51.811Z,0.84
2024-05-09T02:09:02.367Z,0.83
2024-05-09T02:09:11.813Z,0.83
2024-05-09T02:09:21.807Z,0.82
2024-05-09T02:09:31.817Z,0.83
2024-05-09T02:09:41.811Z,0.80
2024-05-09T02:09:51.819Z,0.82
2024-05-09T02:10:16.658Z,0.81
2024-05-09T02:10:26.639Z,0.79
2024-05-09T02:10:33.525Z,0.77
2024-05-09T02:10:41.887Z,0.76
2024-05-09T02:10:51.973Z,0.76
2024-05-09T02:11:01.988Z,0.75
2024-05-09T02:11:12.157Z,0.76
2024-05-09T02:11:31.843Z,0.78
2024-05-09T02:11:41.934Z,0.77
2024-05-09T02:11:51.911Z,0.77
2024-05-09T02:12:02.066Z,0.77
2024-05-09T02:12:12.027Z,0.77
2024-05-09T02:12:21.942Z,0.78
2024-05-09T02:12:31.944Z,0.78
2024-05-09T02:12:41.830Z,0.78
2024-05-09T02:12:51.840Z,0.76
2024-05-09T02:13:01.860Z,0.77
2024-05-09T02:13:11.845Z,0.77
2024-05-09T02:13:31.830Z,0.77
2024-05-09T02:13:41.896Z,0.77
2024-05-09T02:13:51.866Z,0.75
2024-05-09T02:14:01.871Z,0.76
2024-05-09T02:14:11.885Z,0.77
2024-05-09T02:14:21.929Z,0.76
2024-05-09T02:14:31.872Z,0.76
2024-05-09T02:14:51.838Z,0.73
2024-05-09T02:15:01.837Z,0.74
2024-05-09T02:15:11.825Z,0.74
2024-05-09T02:15:21.836Z,0.74
2024-05-09T02:15:31.834Z,0.73
2024-05-09T02:15:41.832Z,0.73
2024-05-09T02:15:51.859Z,0.73
2024-05-09T02:16:11.841Z,0.71
2024-05-09T02:16:21.838Z,0.70
2024-05-09T02:16:31.858Z,0.71
2024-05-09T02:16:41.854Z,0.70
2024-05-09T02:16:51.895Z,0.70
2024-05-09T02:17:01.872Z,0.68
2024-05-09T02:17:11.957Z,0.67
2024-05-09T02:17:22.173Z,0.65
2024-05-09T02:17:42.099Z,0.64
2024-05-09T02:17:52.019Z,0.62
2024-05-09T02:18:02.068Z,0.61
2024-05-09T02:18:12.396Z,0.62
2024-05-09T02:18:21.987Z,0.60
2024-05-09T02:18:31.912Z,0.60
2024-05-09T02:18:51.950Z,0.58
2024-05-09T02:19:01.954Z,0.57
2024-05-09T02:19:12.026Z,0.57
2024-05-09T02:19:22.193Z,0.56
2024-05-09T02:19:32.063Z,0.56
2024-05-09T02:19:41.855Z,0.56
2024-05-09T02:19:51.931Z,0.57
2024-05-09T02:20:01.903Z,0.56
2024-05-09T02:20:18.833Z,0.55
2024-05-09T02:20:30.450Z,0.54
2024-05-09T02:20:36.358Z,0.51
2024-05-09T02:20:42.936Z,0.51
2024-05-09T02:21:01.922Z,0.55
2024-05-09T02:21:11.913Z,0.58
2024-05-09T02:21:21.880Z,0.60
2024-05-09T02:21:31.903Z,0.60
2024-05-09T02:21:41.863Z,0.63
2024-05-09T02:21:51.880Z,0.64
2024-05-09T02:22:11.870Z,0.65
2024-05-09T02:22:21.866Z,0.67
2024-05-09T02:22:31.869Z,0.68
2024-05-09T02:22:41.950Z,0.69
2024-05-09T02:22:51.927Z,0.70
2024-05-09T02:23:01.922Z,0.70
2024-05-09T02:23:12.123Z,0.71
2024-05-09T02:23:21.906Z,0.73
2024-05-09T02:23:31.967Z,0.72
2024-05-09T02:23:51.875Z,0.72
2024-05-09T02:24:01.875Z,0.72
2024-05-09T02:24:11.899Z,0.71
2024-05-09T02:24:21.878Z,0.70
2024-05-09T02:24:31.894Z,0.70
2024-05-09T02:24:41.879Z,0.70
2024-05-09T02:24:51.875Z,0.71
2024-05-09T02:25:01.880Z,0.72
2024-05-09T02:25:21.878Z,0.69
2024-05-09T02:25:32.009Z,0.70
2024-05-09T02:25:41.907Z,0.70
2024-05-09T02:25:51.936Z,0.70
2024-05-09T02:26:01.972Z,0.70
2024-05-09T02:26:11.966Z,0.71
2024-05-09T02:26:21.948Z,0.71